createdAt,value
2019-03-21T00:01:35.753Z,5.80
2019-03-21T00:04:09.723Z,5.80
2019-03-21T00:06:41.237Z,5.80
2019-03-21T00:09:14.982Z,5.80
2019-03-21T00:12:02.128Z,5.70
2019-03-21T00:14:55.573Z,5.70
2019-03-21T00:17:33.978Z,5.70
2019-03-21T00:20:06.186Z,5.70
2019-03-21T00:22:39.928Z,5.70
2019-03-21T00:25:12.713Z,5.70
2019-03-21T00:27:42.548Z,5.70
2019-03-21T00:30:17.220Z,5.70
2019-03-21T00:32:47.045Z,5.70
2019-03-21T00:35:19.617Z,5.70
2019-03-21T00:37:50.049Z,5.70
2019-03-21T00:40:26.266Z,5.70
2019-03-21T00:42:57.487Z,5.60
2019-03-21T00:45:32.194Z,5.60
2019-03-21T00:48:02.998Z,5.70
2019-03-21T00:50:35.124Z,5.70
2019-03-21T00:53:05.814Z,5.70
2019-03-21T00:55:38.620Z,5.70
2019-03-21T00:58:08.868Z,5.70
2019-03-21T01:00:50.712Z,5.70
2019-03-21T01:03:25.208Z,5.80
2019-03-21T01:06:07.647Z,5.80
2019-03-21T01:08:44.560Z,5.80
2019-03-21T01:11:16.094Z,5.80
2019-03-21T01:13:49.033Z,5.80
2019-03-21T01:16:18.895Z,5.80
2019-03-21T01:18:51.677Z,5.90
2019-03-21T01:21:22.121Z,5.90
2019-03-21T01:23:55.250Z,5.90
2019-03-21T01:26:26.394Z,5.90
2019-03-21T01:28:56.208Z,6.00
2019-03-21T01:31:26.062Z,6.00
2019-03-21T01:33:55.906Z,6.00
2019-03-21T01:36:26.342Z,6.00
2019-03-21T01:38:56.143Z,6.00
2019-03-21T01:41:26.027Z,6.00
2019-03-21T01:43:55.836Z,6.00
2019-03-21T01:46:26.900Z,6.00
2019-03-21T01:49:05.446Z,6.00
2019-03-21T01:51:37.269Z,6.00
2019-03-21T01:54:07.166Z,5.90
2019-03-21T01:56:47.166Z,5.90
2019-03-21T01:59:17.036Z,5.90
2019-03-21T02:01:48.482Z,5.80
2019-03-21T02:04:19.287Z,5.80
2019-03-21T02:06:53.794Z,5.80
2019-03-21T02:09:23.580Z,5.80
2019-03-21T02:11:54.460Z,5.80
2019-03-21T02:14:24.304Z,5.80
2019-03-21T02:16:57.139Z,5.70
2019-03-21T02:19:28.178Z,5.70
2019-03-21T02:22:01.580Z,5.70
2019-03-21T02:24:32.583Z,5.70
2019-03-21T02:27:03.663Z,5.60
2019-03-21T02:29:34.175Z,5.60
2019-03-21T02:32:05.079Z,5.50
2019-03-21T02:34:35.710Z,5.50
2019-03-21T02:37:07.372Z,5.40
2019-03-21T02:39:39.718Z,5.40
2019-03-21T02:42:09.566Z,5.40
2019-03-21T02:44:40.170Z,5.40
2019-03-21T02:47:11.782Z,5.40
2019-03-21T02:49:42.917Z,5.30
2019-03-21T02:52:12.924Z,5.30
2019-03-21T02:54:42.750Z,5.30
2019-03-21T02:57:15.573Z,5.30
2019-03-21T02:59:46.851Z,5.20
2019-03-21T03:02:19.765Z,5.20
2019-03-21T03:04:51.159Z,5.20
2019-03-21T03:07:20.991Z,5.20
2019-03-21T03:09:52.740Z,5.10
2019-03-21T03:12:24.092Z,5.10
2019-03-21T03:14:53.954Z,5.10
2019-03-21T03:17:28.326Z,5.10
2019-03-21T03:19:58.204Z,5.10
2019-03-21T03:22:28.445Z,5.10
2019-03-21T03:24:58.990Z,5.00
2019-03-21T03:27:33.338Z,5.00
2019-03-21T03:30:03.241Z,5.00
2019-03-21T03:32:33.133Z,4.90
2019-03-21T03:35:08.513Z,4.90
2019-03-21T03:37:39.886Z,4.90
2019-03-21T03:40:19.516Z,4.90
2019-03-21T03:42:49.331Z,4.90
2019-03-21T03:45:37.272Z,4.90
2019-03-21T03:47:59.730Z,4.90
2019-03-21T03:50:30.253Z,4.90
2019-03-21T03:53:00.353Z,4.90
2019-03-21T03:55:32.160Z,4.90
2019-03-21T03:58:19.837Z,4.90
2019-03-21T04:00:49.704Z,4.90
2019-03-21T04:03:20.110Z,4.90
2019-03-21T04:05:49.890Z,4.90
2019-03-21T04:08:26.871Z,4.90
2019-03-21T04:10:59.800Z,4.90
2019-03-21T04:13:30.797Z,4.90
2019-03-21T04:16:00.668Z,4.90
2019-03-21T04:18:31.309Z,4.90
2019-03-21T04:21:09.591Z,4.90
2019-03-21T04:23:39.353Z,4.90
2019-03-21T04:26:28.497Z,4.90
2019-03-21T04:29:05.439Z,4.90
2019-03-21T04:31:38.020Z,4.90
2019-03-21T04:34:10.737Z,4.90
2019-03-21T04:36:41.258Z,4.90
2019-03-21T04:39:11.497Z,4.90
2019-03-21T04:41:44.823Z,4.90
2019-03-21T04:44:15.075Z,4.90
2019-03-21T04:46:45.460Z,4.90
2019-03-21T04:49:16.300Z,4.90
2019-03-21T04:51:49.500Z,4.90
2019-03-21T04:54:21.719Z,4.90
2019-03-21T04:56:53.235Z,4.90
2019-03-21T04:59:29.979Z,4.90
2019-03-21T05:02:01.463Z,5.00
2019-03-21T05:04:32.845Z,5.00
2019-03-21T05:07:04.868Z,5.00
2019-03-21T05:09:37.343Z,5.00
2019-03-21T05:12:07.219Z,5.10
2019-03-21T05:14:39.120Z,5.10
2019-03-21T05:17:11.010Z,5.10
2019-03-21T05:19:40.966Z,5.20
2019-03-21T05:22:11.254Z,5.20
2019-03-21T05:24:43.724Z,5.20
2019-03-21T05:27:13.619Z,5.20
2019-03-21T05:29:45.355Z,5.30
2019-03-21T05:32:16.546Z,5.30
2019-03-21T05:34:49.328Z,5.30
2019-03-21T05:37:20.882Z,5.30
2019-03-21T05:39:52.962Z,5.40
2019-03-21T05:42:25.548Z,5.40
2019-03-21T05:45:00.794Z,5.40
2019-03-21T05:47:33.320Z,5.50
2019-03-21T05:50:09.605Z,5.50
2019-03-21T05:52:41.941Z,5.60
2019-03-21T05:55:13.249Z,5.60
2019-03-21T05:57:46.248Z,5.70
2019-03-21T06:00:18.992Z,5.70
2019-03-21T06:03:18.279Z,5.80
2019-03-21T06:05:56.982Z,5.80
2019-03-21T06:08:29.994Z,5.90
2019-03-21T06:10:59.782Z,6.00
2019-03-21T06:13:29.628Z,6.10
2019-03-21T06:16:13.267Z,6.10
2019-03-21T06:19:07.092Z,6.20
2019-03-21T06:21:50.470Z,6.20
2019-03-21T06:24:27.041Z,6.30
2019-03-21T06:27:30.921Z,6.40
2019-03-21T06:30:00.714Z,6.50
2019-03-21T06:32:31.986Z,6.60
2019-03-21T06:35:01.806Z,6.80
2019-03-21T06:37:32.421Z,7.00
2019-03-21T06:40:04.997Z,7.20
2019-03-21T06:42:35.121Z,7.30
2019-03-21T06:45:07.021Z,7.50
2019-03-21T06:47:37.158Z,7.70
2019-03-21T06:50:09.307Z,8.00
2019-03-21T06:52:39.121Z,8.40
2019-03-21T06:55:09.549Z,8.70
2019-03-21T06:57:39.979Z,9.00
2019-03-21T07:00:11.710Z,9.30
2019-03-21T07:02:43.839Z,9.50
2019-03-21T07:05:14.898Z,9.80
2019-03-21T07:07:45.838Z,9.90
2019-03-21T07:10:16.401Z,10.00
2019-03-21T07:12:46.257Z,9.90
2019-03-21T07:15:16.083Z,9.80
2019-03-21T07:17:45.930Z,9.60
2019-03-21T07:20:18.236Z,9.40
2019-03-21T07:22:50.853Z,9.10
2019-03-21T07:25:23.286Z,8.90
2019-03-21T07:27:54.455Z,8.90
2019-03-21T07:30:27.277Z,9.00
2019-03-21T07:32:57.336Z,9.20
2019-03-21T07:35:38.570Z,9.30
2019-03-21T07:38:17.395Z,9.70
2019-03-21T07:40:50.456Z,9.70
2019-03-21T07:43:22.561Z,10.00
2019-03-21T07:45:52.465Z,10.00
2019-03-21T07:48:23.329Z,10.10
2019-03-21T07:50:53.899Z,10.40
2019-03-21T07:53:27.334Z,10.40
2019-03-21T07:55:57.117Z,10.40
2019-03-21T07:58:33.245Z,10.40
2019-03-21T08:01:04.929Z,10.30
2019-03-21T08:03:37.199Z,10.30
2019-03-21T08:06:12.263Z,10.50
2019-03-21T08:08:43.024Z,10.70
2019-03-21T08:11:14.417Z,11.10
2019-03-21T08:13:44.325Z,11.30
2019-03-21T08:16:18.999Z,11.50
2019-03-21T08:18:48.829Z,11.70
2019-03-21T08:21:21.349Z,11.70
2019-03-21T08:23:51.760Z,11.70
2019-03-21T08:26:22.087Z,11.70
2019-03-21T08:28:56.840Z,11.80
2019-03-21T08:31:29.312Z,11.70
2019-03-21T08:33:59.228Z,11.30
2019-03-21T08:36:30.320Z,10.90
2019-03-21T08:39:01.519Z,10.50
2019-03-21T08:41:36.126Z,10.20
2019-03-21T08:44:11.993Z,9.90
2019-03-21T08:46:41.773Z,9.70
2019-03-21T08:49:19.657Z,9.60
2019-03-21T08:51:53.077Z,9.60
2019-03-21T08:57:15.441Z,10.20
2019-03-21T08:59:48.030Z,10.40
2019-03-21T09:05:18.030Z,10.30
2019-03-21T09:10:56.618Z,9.80
2019-03-21T09:13:34.054Z,9.90
2019-03-21T09:16:17.573Z,9.70
2019-03-21T09:27:35.788Z,9.70
2019-03-21T09:30:17.802Z,9.80
2019-03-21T09:32:49.880Z,10.00
2019-03-21T09:35:41.530Z,10.30
2019-03-21T09:38:31.033Z,10.60
2019-03-21T09:41:16.067Z,10.50
2019-03-21T09:43:47.722Z,10.60
2019-03-21T09:46:35.201Z,10.60
2019-03-21T09:49:12.867Z,10.50
2019-03-21T09:51:47.706Z,10.80
2019-03-21T09:54:27.274Z,10.70
2019-03-21T09:56:59.655Z,10.60
2019-03-21T09:59:34.072Z,10.60
2019-03-21T10:02:04.676Z,10.80
2019-03-21T10:04:34.549Z,11.00
2019-03-21T10:07:09.922Z,11.40
2019-03-21T10:09:42.655Z,11.80
2019-03-21T10:12:19.167Z,12.00
2019-03-21T10:14:52.926Z,12.20
2019-03-21T10:17:28.629Z,12.50
2019-03-21T10:20:01.720Z,13.00
2019-03-21T10:22:35.726Z,13.40
2019-03-21T10:25:15.152Z,14.10
2019-03-21T10:27:46.674Z,14.70
2019-03-21T10:33:54.860Z,15.20
2019-03-21T10:36:34.047Z,15.20
2019-03-21T10:39:09.696Z,15.10
2019-03-21T10:41:42.555Z,14.60
2019-03-21T10:44:28.465Z,14.50
2019-03-21T10:47:18.978Z,13.90
2019-03-21T10:49:58.025Z,13.90
2019-03-21T10:52:29.399Z,13.80
2019-03-21T10:55:00.761Z,13.80
2019-03-21T10:57:39.335Z,13.60
2019-03-21T11:00:17.121Z,13.50
2019-03-21T11:03:04.817Z,13.40
2019-03-21T11:05:47.020Z,13.20
2019-03-21T11:08:19.692Z,13.20
2019-03-21T11:10:52.646Z,13.30
2019-03-21T11:13:26.488Z,13.30
2019-03-21T11:15:57.172Z,13.30
2019-03-21T11:18:36.026Z,13.10
2019-03-21T11:21:01.605Z,13.00
2019-03-21T11:23:35.789Z,12.90
2019-03-21T11:26:09.380Z,13.00
2019-03-21T11:28:46.950Z,13.10
2019-03-21T11:31:22.167Z,13.40
2019-03-21T11:33:53.321Z,13.80
2019-03-21T11:36:37.729Z,13.90
2019-03-21T11:39:02.226Z,14.10
2019-03-21T11:41:35.050Z,14.10
2019-03-21T11:44:21.787Z,14.10
2019-03-21T11:46:55.784Z,14.10
2019-03-21T11:49:25.375Z,14.10
2019-03-21T11:51:59.809Z,14.00
2019-03-21T11:54:30.526Z,13.90
2019-03-21T11:57:01.890Z,13.80
2019-03-21T11:59:50.687Z,13.70
2019-03-21T12:02:26.597Z,13.80
2019-03-21T12:05:00.503Z,14.20
2019-03-21T12:07:36.821Z,14.40
2019-03-21T12:10:13.509Z,14.50
2019-03-21T12:15:48.533Z,14.30
2019-03-21T12:21:27.682Z,13.50
2019-03-21T12:30:45.383Z,12.80
2019-03-21T12:33:37.436Z,12.70
2019-03-21T12:36:08.763Z,12.50
2019-03-21T12:38:42.793Z,12.30
2019-03-21T12:41:31.429Z,12.00
2019-03-21T12:44:23.789Z,11.80
2019-03-21T12:50:15.276Z,11.40
2019-03-21T12:58:49.909Z,10.90
2019-03-21T13:01:31.009Z,10.80
2019-03-21T13:10:04.958Z,10.60
2019-03-21T13:27:59.545Z,10.40
2019-03-21T13:36:28.571Z,10.30
2019-03-21T13:39:04.143Z,10.30
2019-03-21T13:47:44.592Z,10.70
2019-03-21T13:53:18.923Z,11.00
2019-03-21T13:58:37.461Z,11.20
2019-03-21T14:13:43.983Z,11.10
2019-03-21T14:25:38.968Z,11.00
2019-03-21T14:28:12.040Z,10.90
2019-03-21T14:30:45.816Z,10.80
2019-03-21T16:21:32.774Z,10.30
2019-03-21T16:33:15.840Z,10.40
2019-03-21T16:38:47.924Z,10.40
2019-03-21T16:41:29.320Z,10.40
2019-03-21T16:44:09.035Z,10.40
2019-03-21T16:46:50.777Z,10.40
2019-03-21T16:49:20.787Z,10.40
2019-03-21T16:54:51.605Z,10.50
2019-03-21T16:57:39.686Z,10.50
2019-03-21T17:03:20.473Z,10.50
2019-03-21T17:09:19.502Z,10.50
2019-03-21T17:11:52.012Z,10.60
2019-03-21T17:14:22.591Z,10.60
2019-03-21T17:20:05.601Z,10.60
2019-03-21T17:28:46.351Z,10.60
2019-03-21T17:34:28.044Z,10.60
2019-03-21T18:02:02.803Z,10.60
2019-03-21T18:04:39.278Z,10.60
2019-03-21T18:07:19.397Z,10.60
2019-03-21T18:12:42.707Z,10.60
2019-03-21T18:15:17.141Z,10.60
2019-03-21T18:17:50.210Z,10.60
2019-03-21T18:20:32.235Z,10.60
2019-03-21T18:23:04.830Z,10.60
2019-03-21T18:25:41.989Z,10.60
2019-03-21T18:34:25.553Z,10.50
2019-03-21T18:36:57.995Z,10.50
2019-03-21T18:45:24.405Z,10.50
2019-03-21T18:50:49.588Z,10.50
2019-03-21T18:53:20.293Z,10.50
2019-03-21T18:55:53.694Z,10.50
2019-03-21T19:07:21.999Z,10.50
2019-03-21T19:10:03.099Z,10.50
2019-03-21T19:12:37.077Z,10.50
2019-03-21T19:15:16.408Z,10.50
2019-03-21T19:17:48.008Z,10.50
2019-03-21T19:20:21.962Z,10.40
2019-03-21T19:22:54.162Z,10.30
2019-03-21T19:25:24.059Z,10.30
2019-03-21T19:27:59.993Z,10.30
2019-03-21T19:33:46.600Z,10.10
2019-03-21T19:36:18.778Z,10.10
2019-03-21T19:38:54.844Z,10.00
2019-03-21T19:41:32.480Z,9.90
2019-03-21T19:44:11.610Z,9.80
2019-03-21T19:46:53.980Z,9.70
2019-03-21T19:49:34.938Z,9.60
2019-03-21T19:52:08.996Z,9.50
2019-03-21T19:54:43.030Z,9.40
2019-03-21T19:57:17.195Z,9.30
2019-03-21T19:59:53.801Z,9.20
2019-03-21T20:02:25.734Z,9.20
2019-03-21T20:04:58.321Z,9.10
2019-03-21T20:07:35.908Z,9.00
2019-03-21T20:10:14.168Z,8.90
2019-03-21T20:12:50.752Z,8.90
2019-03-21T20:15:24.173Z,8.80
2019-03-21T20:17:58.860Z,8.80
2019-03-21T20:20:31.060Z,8.70
2019-03-21T20:23:06.913Z,8.70
2019-03-21T20:25:43.228Z,8.80
2019-03-21T20:28:24.866Z,8.80
2019-03-21T20:33:58.262Z,8.80
2019-03-21T20:36:36.080Z,8.80
2019-03-21T20:39:15.505Z,8.80
2019-03-21T20:44:51.427Z,8.70
2019-03-21T20:50:38.265Z,8.70
2019-03-21T20:56:12.985Z,8.70
2019-03-21T22:22:05.498Z,8.80
2019-03-21T22:27:55.949Z,8.80
2019-03-21T22:33:50.206Z,8.80
2019-03-21T22:39:10.299Z,8.80
2019-03-21T22:41:46.415Z,8.80
2019-03-21T22:44:20.710Z,8.80
2019-03-21T22:49:44.652Z,8.80
2019-03-21T23:05:04.152Z,8.70
2019-03-21T23:07:42.980Z,8.70
2019-03-21T23:10:17.429Z,8.70
2019-03-21T23:12:53.322Z,8.70
2019-03-21T23:15:32.129Z,8.70
2019-03-21T23:18:06.082Z,8.60
2019-03-21T23:20:48.076Z,8.70
2019-03-21T23:23:19.465Z,8.60
2019-03-21T23:25:49.338Z,8.60
2019-03-21T23:28:21.668Z,8.60
2019-03-21T23:30:53.885Z,8.60
2019-03-21T23:33:24.868Z,8.50
2019-03-21T23:36:00.736Z,8.50
2019-03-21T23:38:41.106Z,8.50
2019-03-21T23:41:31.034Z,8.50
2019-03-21T23:44:11.664Z,8.50
2019-03-21T23:46:54.051Z,8.50
2019-03-21T23:49:31.353Z,8.50
2019-03-21T23:52:09.289Z,8.40
2019-03-21T23:54:41.528Z,8.40
2019-03-21T23:57:16.985Z,8.40
2019-03-21T23:59:52.242Z,8.40
